Time;durP1;ratioP1;P1;durP2;ratioP2;P2;SDS_P1;SDS_P2;PMS_P1;PMS_P2;Temp;Humidity;BMP_temperature;BMP_pressure;BME280_temperature;BME280_humidity;BME280_pressure;Samples;Min_cycle;Max_cycle;Signal;HPM_P1;HPM_P2
2023/11/22 00:02:53;;;;;;;32.40;19.70;;;;;;;-1.73;100.00;101194.55;105772;1287;600080;-77
2023/11/22 00:05:21;;;;;;;34.70;20.30;;;;;;;-1.76;100.00;101192.99;106794;1267;60445;-77
2023/11/22 00:07:49;;;;;;;43.20;22.40;;;;;;;-1.78;100.00;101198.32;106204;1270;59384;-77
2023/11/22 00:10:16;;;;;;;43.70;21.60;;;;;;;-1.79;100.00;101203.80;104908;1267;72263;-78
2023/11/22 00:12:45;;;;;;;35.60;20.40;;;;;;;-1.79;100.00;101193.52;104774;1272;63959;-79
2023/11/22 00:15:17;;;;;;;37.20;21.80;;;;;;;-1.79;100.00;101185.12;104966;1267;72692;-80
2023/11/22 00:17:45;;;;;;;38.00;19.70;;;;;;;-1.80;100.00;101187.86;105016;1264;212083;-78
2023/11/22 00:20:13;;;;;;;44.80;22.00;;;;;;;-1.79;100.00;101190.44;105049;1268;59324;-78
2023/11/22 00:22:41;;;;;;;38.50;20.30;;;;;;;-1.83;100.00;101190.25;105164;1265;70964;-79
2023/11/22 00:25:09;;;;;;;41.40;22.30;;;;;;;-1.87;100.00;101187.52;105117;1266;62298;-78
2023/11/22 00:27:41;;;;;;;36.30;20.40;;;;;;;-1.91;100.00;101182.88;105176;1260;71247;-77
2023/11/22 00:30:10;;;;;;;43.10;23.70;;;;;;;-1.95;100.00;101184.26;104970;1267;61748;-78
2023/11/22 00:32:40;;;;;;;43.50;23.50;;;;;;;-1.99;100.00;101181.51;105190;1265;59951;-78
2023/11/22 00:35:08;;;;;;;44.90;24.00;;;;;;;-2.02;100.00;101175.85;105803;1251;72906;-78
2023/11/22 00:37:36;;;;;;;46.00;25.20;;;;;;;-2.06;100.00;101173.45;105890;1256;64050;-79
2023/11/22 00:40:10;;;;;;;46.70;24.70;;;;;;;-2.11;100.00;101169.00;105727;1251;72730;-79
2023/11/22 00:42:41;;;;;;;43.30;23.40;;;;;;;-2.14;100.00;101168.30;105953;1256;61688;-81
2023/11/22 00:45:10;;;;;;;44.10;25.00;;;;;;;-2.17;100.00;101175.84;105705;1251;59961;-77
2023/11/22 00:47:38;;;;;;;44.90;25.00;;;;;;;-2.17;100.00;101180.64;105940;1251;73360;-81
2023/11/22 00:50:07;;;;;;;54.80;28.30;;;;;;;-2.17;100.00;101182.34;105847;1255;63759;-77
2023/11/22 00:52:35;;;;;;;48.00;26.60;;;;;;;-2.15;100.00;101175.16;105835;1257;72700;-78
2023/11/22 00:55:03;;;;;;;43.40;24.90;;;;;;;-2.15;100.00;101167.45;105702;1257;61736;-77
2023/11/22 00:57:31;;;;;;;47.70;26.40;;;;;;;-2.19;100.00;101166.24;105911;1251;59701;-80
2023/11/22 00:59:58;;;;;;;44.00;24.70;;;;;;;-2.20;100.00;101162.31;105919;1257;72129;-78
2023/11/22 01:02:26;;;;;;;42.10;24.00;;;;;;;-2.20;100.00;101152.55;105890;1256;62289;-79
2023/11/22 01:04:54;;;;;;;46.80;26.80;;;;;;;-2.23;100.00;101162.48;105801;1257;70282;-78
2023/11/22 01:07:22;;;;;;;45.90;26.10;;;;;;;-2.23;100.00;101156.65;105682;1254;61675;-80
2023/11/22 01:09:49;;;;;;;45.60;24.90;;;;;;;-2.20;100.00;101151.34;105652;1257;59960;-78
2023/11/22 01:12:17;;;;;;;41.90;25.20;;;;;;;-2.21;100.00;101148.60;105788;1257;71818;-79
2023/11/22 01:14:44;;;;;;;41.90;23.70;;;;;;;-2.20;100.00;101155.64;105684;1256;63713;-78
2023/11/22 01:17:12;;;;;;;46.60;25.30;;;;;;;-2.18;100.00;101163.51;105710;1266;72840;-80
2023/11/22 01:19:41;;;;;;;43.40;23.30;;;;;;;-2.13;100.00;101169.33;105728;1253;60953;-78
2023/11/22 01:22:09;;;;;;;48.60;28.00;;;;;;;-2.06;100.00;101175.00;105686;1251;59839;-75
2023/11/22 01:24:37;;;;;;;50.00;28.70;;;;;;;-2.00;100.00;101165.92;105727;1251;73359;-76
2023/11/22 01:27:06;;;;;;;45.50;28.70;;;;;;;-1.96;100.00;101151.53;105766;1256;62544;-78
2023/11/22 01:29:34;;;;;;;44.10;24.80;;;;;;;-1.91;100.00;101152.05;105739;1256;72706;-77
2023/11/22 01:32:03;;;;;;;44.00;24.60;;;;;;;-1.84;100.00;101154.96;105729;1251;60690;-78
2023/11/22 01:34:30;;;;;;;45.90;24.90;;;;;;;-1.77;100.00;101153.08;105775;1255;60069;-78
2023/11/22 01:36:58;;;;;;;44.80;25.60;;;;;;;-1.69;100.00;101152.03;105830;1256;73059;-80
2023/11/22 01:39:26;;;;;;;47.10;27.70;;;;;;;-1.61;100.00;101148.27;106099;1257;63943;-76
2023/11/22 01:41:54;;;;;;;43.80;26.40;;;;;;;-1.56;100.00;101148.77;105957;1257;72700;-76
2023/11/22 01:44:22;;;;;;;44.80;27.00;;;;;;;-1.53;100.00;101145.66;105796;1254;60403;-80
2023/11/22 01:46:49;;;;;;;46.70;27.70;;;;;;;-1.52;100.00;101150.81;105958;1256;61213;-78
2023/11/22 01:49:17;;;;;;;50.50;27.40;;;;;;;-1.50;100.00;101158.86;105864;1251;72019;-78
2023/11/22 01:51:45;;;;;;;47.90;29.80;;;;;;;-1.49;100.00;101173.95;105802;1251;62270;-78
2023/11/22 01:54:13;;;;;;;57.00;30.40;;;;;;;-1.47;100.00;101163.66;105820;1254;71702;-78
2023/11/22 01:56:41;;;;;;;50.70;28.90;;;;;;;-1.46;100.00;101158.69;105643;1257;61638;-78
2023/11/22 01:59:08;;;;;;;47.90;28.20;;;;;;;-1.46;100.00;101163.66;105623;1259;59689;-79
2023/11/22 02:01:37;;;;;;;48.20;27.80;;;;;;;-1.46;100.00;101172.23;105552;1251;71624;-79
2023/11/22 02:04:06;;;;;;;48.10;28.90;;;;;;;-1.46;100.00;101169.67;105743;1252;62660;-78
2023/11/22 02:06:35;;;;;;;47.50;27.40;;;;;;;-1.46;100.00;101175.66;105892;1256;71512;-78
2023/11/22 02:09:03;;;;;;;47.90;28.30;;;;;;;-1.46;100.00;101175.50;105740;1254;60461;-78
2023/11/22 02:11:30;;;;;;;48.40;28.40;;;;;;;-1.46;100.00;101173.95;105886;1257;59763;-77
2023/11/22 02:13:58;;;;;;;50.00;28.40;;;;;;;-1.47;100.00;101173.45;105770;1254;72357;-81
2023/11/22 02:16:27;;;;;;;46.90;28.20;;;;;;;-1.44;100.00;101170.69;105752;1252;63605;-80
2023/11/22 02:18:55;;;;;;;49.30;27.30;;;;;;;-1.41;100.00;101168.45;105972;1256;71927;-80
2023/11/22 02:21:23;;;;;;;42.60;26.20;;;;;;;-1.42;100.00;101168.96;105735;1257;60375;-77
2023/11/22 02:23:51;;;;;;;58.90;35.40;;;;;;;-1.45;100.00;101164.17;105693;1251;60246;-79
2023/11/22 02:26:19;;;;;;;71.10;37.80;;;;;;;-1.47;100.00;101162.80;105885;1251;73021;-78
2023/11/22 02:28:47;;;;;;;62.50;37.70;;;;;;;-1.46;100.00;101163.99;106117;1251;63501;-80
2023/11/22 02:31:17;;;;;;;57.70;32.80;;;;;;;-1.44;100.00;101162.47;105895;1251;71408;-79
2023/11/22 02:33:45;;;;;;;56.30;32.10;;;;;;;-1.40;100.00;101167.08;105924;1253;59753;-79
2023/11/22 02:36:13;;;;;;;52.40;29.80;;;;;;;-1.35;100.00;101170.33;105940;1251;59769;-79
2023/11/22 02:38:40;;;;;;;56.40;30.30;;;;;;;-1.34;100.00;101174.79;105784;1256;73349;-79
2023/11/22 02:41:09;;;;;;;52.90;30.30;;;;;;;-1.32;100.00;101182.48;105768;1251;64078;-80
2023/11/22 02:43:37;;;;;;;49.70;29.60;;;;;;;-1.33;100.00;101184.39;105818;1256;72817;-79
2023/11/22 02:46:04;;;;;;;51.40;30.00;;;;;;;-1.37;100.00;101184.05;105827;1257;60735;-77
2023/11/22 02:48:33;;;;;;;53.10;31.00;;;;;;;-1.42;100.00;101183.38;105845;1257;59677;-78
2023/11/22 02:51:01;;;;;;;49.60;30.00;;;;;;;-1.46;100.00;101174.12;105732;1252;71887;-78
2023/11/22 02:53:30;;;;;;;54.90;31.70;;;;;;;-1.46;100.00;101177.55;106257;1251;64058;-75
2023/11/22 02:56:01;;;;;;;53.70;30.40;;;;;;;-1.45;100.00;101178.06;105954;1256;71227;-78
2023/11/22 02:58:29;;;;;;;78.70;44.90;;;;;;;-1.44;100.00;101175.50;105759;1251;60788;-77
2023/11/22 03:00:57;;;;;;;93.70;54.60;;;;;;;-1.44;100.00;101175.48;106557;1252;59599;-77
2023/11/22 03:03:25;;;;;;;97.60;55.30;;;;;;;-1.42;100.00;101177.02;105747;1251;73069;-79
2023/11/22 03:05:52;;;;;;;94.70;56.30;;;;;;;-1.43;100.00;101175.14;105888;1256;63508;-79
2023/11/22 03:08:21;;;;;;;91.00;55.80;;;;;;;-1.45;100.00;101175.14;105933;1254;70954;-81
2023/11/22 03:10:50;;;;;;;89.50;54.40;;;;;;;-1.45;100.00;101176.52;105782;1254;60210;-77
2023/11/22 03:13:18;;;;;;;99.80;57.90;;;;;;;-1.46;100.00;101173.26;105941;1251;60019;-79
2023/11/22 03:15:46;;;;;;;75.00;44.00;;;;;;;-1.47;100.00;101172.92;105892;1253;73073;-79
2023/11/22 03:18:16;;;;;;;90.90;53.30;;;;;;;-1.48;100.00;101170.17;106086;1253;62304;-81
2023/11/22 03:20:44;;;;;;;95.90;59.50;;;;;;;-1.47;100.00;101171.04;106032;1257;72783;-78
2023/11/22 03:23:11;;;;;;;95.00;57.70;;;;;;;-1.45;100.00;101172.75;105991;1256;59909;-78
2023/11/22 03:25:39;;;;;;;105.70;60.10;;;;;;;-1.43;100.00;101173.77;105709;1251;60081;-78
2023/11/22 03:28:08;;;;;;;95.50;60.20;;;;;;;-1.43;100.00;101175.98;105750;1251;73143;-78
2023/11/22 03:30:35;;;;;;;101.90;58.30;;;;;;;-1.41;100.00;101178.75;105841;1253;62302;-79
2023/11/22 03:33:04;;;;;;;102.50;57.40;;;;;;;-1.43;100.00;101182.85;105848;1256;72754;-79
2023/11/22 03:35:32;;;;;;;106.40;57.80;;;;;;;-1.42;100.00;101181.66;105727;1257;60995;-79
2023/11/22 03:38:00;;;;;;;103.30;57.60;;;;;;;-1.36;100.00;101183.03;105835;1254;60201;-78
2023/11/22 03:40:27;;;;;;;101.50;54.50;;;;;;;-1.34;100.00;101186.09;105757;1257;73460;-80
2023/11/22 03:42:56;;;;;;;99.60;56.20;;;;;;;-1.33;100.00;101184.55;105898;1251;62489;-80
2023/11/22 03:45:24;;;;;;;92.90;53.80;;;;;;;-1.33;100.00;101188.85;105827;1256;72671;-79
2023/11/22 03:47:53;;;;;;;104.30;59.80;;;;;;;-1.32;100.00;101193.46;106000;1256;59830;-81
2023/11/22 03:50:20;;;;;;;110.00;58.40;;;;;;;-1.30;100.00;101194.84;105963;1251;59673;-78
2023/11/22 03:52:48;;;;;;;106.20;61.00;;;;;;;-1.28;100.00;101194.32;105721;1251;73054;-77
2023/11/22 03:55:15;;;;;;;108.20;60.60;;;;;;;-1.25;100.00;101196.38;105818;1253;62351;-79
2023/11/22 03:57:43;;;;;;;110.30;61.10;;;;;;;-1.23;100.00;101206.33;105942;1253;72548;-78
2023/11/22 04:00:12;;;;;;;111.10;60.50;;;;;;;-1.21;100.00;101203.91;105660;1252;60802;-80
2023/11/22 04:02:41;;;;;;;100.80;56.00;;;;;;;-1.17;100.00;101208.54;105915;1257;60174;-80
2023/11/22 04:05:11;;;;;;;101.30;58.50;;;;;;;-1.17;100.00;101212.66;105827;1251;71959;-80
2023/11/22 04:07:39;;;;;;;103.00;56.00;;;;;;;-1.14;100.00;101209.90;105883;1251;62268;-80
2023/11/22 04:10:07;;;;;;;94.10;56.10;;;;;;;-1.09;100.00;101205.95;105988;1253;72632;-79
2023/11/22 04:12:34;;;;;;;92.80;56.30;;;;;;;-1.04;100.00;101196.49;105719;1254;60550;-79
2023/11/22 04:15:08;;;;;;;91.50;53.60;;;;;;;-1.01;100.00;101193.40;105908;1257;60338;-79
2023/11/22 04:17:37;;;;;;;100.30;55.80;;;;;;;-1.02;100.00;101197.86;105870;1258;73768;-79
2023/11/22 04:20:10;;;;;;;89.60;53.80;;;;;;;-1.03;100.00;101193.40;105787;1256;63725;-78
2023/11/22 04:22:38;;;;;;;75.80;47.70;;;;;;;-1.05;100.00;101191.51;105920;1256;70816;-78
2023/11/22 04:25:08;;;;;;;84.80;48.90;;;;;;;-1.06;100.00;101187.06;105855;1253;60895;-79
2023/11/22 04:27:36;;;;;;;79.70;45.80;;;;;;;-1.07;100.00;101191.87;105704;1251;60327;-79
2023/11/22 04:30:08;;;;;;;79.50;45.50;;;;;;;-1.07;100.00;101196.52;105719;1251;71648;-77
2023/11/22 04:32:37;;;;;;;72.20;43.30;;;;;;;-1.08;100.00;101200.28;105834;1252;62264;-79
2023/11/22 04:35:06;;;;;;;69.90;40.70;;;;;;;-1.09;100.00;101197.19;105866;1253;71375;-79
2023/11/22 04:37:33;;;;;;;72.10;41.10;;;;;;;-1.10;100.00;101200.28;105888;1253;60544;-81
2023/11/22 04:40:01;;;;;;;62.20;38.70;;;;;;;-1.09;100.00;101197.36;105836;1253;60420;-78
2023/11/22 04:42:29;;;;;;;59.20;39.20;;;;;;;-1.12;100.00;101198.40;105688;1257;74475;-79
2023/11/22 04:44:57;;;;;;;61.80;35.30;;;;;;;-1.11;100.00;101203.89;105860;1257;62962;-79
2023/11/22 04:47:25;;;;;;;52.80;32.70;;;;;;;-1.14;100.00;101204.41;105887;1252;72643;-79
2023/11/22 04:49:53;;;;;;;65.90;35.80;;;;;;;-1.19;100.00;101205.11;105741;1253;60566;-79
2023/11/22 04:52:20;;;;;;;59.90;35.40;;;;;;;-1.22;100.00;101206.14;105888;1251;60466;-80
2023/11/22 04:54:48;;;;;;;52.50;34.70;;;;;;;-1.25;100.00;101209.07;105955;1251;72606;-81
2023/11/22 04:57:15;;;;;;;56.60;34.10;;;;;;;-1.25;100.00;101213.02;105814;1253;62403;-78
2023/11/22 04:59:43;;;;;;;65.10;36.50;;;;;;;-1.21;100.00;101215.76;105903;1256;72709;-80
2023/11/22 05:02:11;;;;;;;60.30;35.40;;;;;;;-1.17;100.00;101220.89;105800;1253;60441;-79
2023/11/22 05:04:39;;;;;;;55.50;34.20;;;;;;;-1.15;100.00;101222.95;105811;1253;60432;-80
2023/11/22 05:07:07;;;;;;;56.10;34.00;;;;;;;-1.15;100.00;101224.14;105650;1254;73868;-77
2023/11/22 05:09:34;;;;;;;60.20;34.00;;;;;;;-1.16;100.00;101224.31;105603;1258;63791;-77
2023/11/22 05:12:03;;;;;;;58.90;33.60;;;;;;;-1.18;100.00;101230.33;105609;1253;72689;-79
2023/11/22 05:14:31;;;;;;;57.00;33.60;;;;;;;-1.20;100.00;101229.30;105754;1257;60578;-77
2023/11/22 05:16:59;;;;;;;54.00;34.50;;;;;;;-1.20;100.00;101230.85;105713;1255;60588;-80
2023/11/22 05:19:27;;;;;;;56.90;32.80;;;;;;;-1.18;100.00;101234.11;105753;1252;72562;-78
2023/11/22 05:21:54;;;;;;;65.80;36.10;;;;;;;-1.18;100.00;101233.41;106066;1253;62652;-77
2023/11/22 05:24:22;;;;;;;78.40;40.00;;;;;;;-1.19;100.00;101236.17;105786;1253;72824;-77
2023/11/22 05:26:49;;;;;;;86.40;48.50;;;;;;;-1.19;100.00;101229.83;105795;1253;60849;-78
2023/11/22 05:29:17;;;;;;;91.70;46.60;;;;;;;-1.20;100.00;101233.77;105796;1257;60342;-78
2023/11/22 05:31:45;;;;;;;82.10;45.20;;;;;;;-1.20;100.00;101235.48;105651;1253;72683;-78
2023/11/22 05:34:13;;;;;;;78.40;44.60;;;;;;;-1.23;100.00;101237.20;105789;1257;63605;-79
2023/11/22 05:36:40;;;;;;;85.20;46.60;;;;;;;-1.25;100.00;101239.77;105705;1257;72655;-81
2023/11/22 05:39:08;;;;;;;85.50;49.80;;;;;;;-1.24;100.00;101241.65;105704;1253;60540;-80
2023/11/22 05:41:37;;;;;;;74.40;42.40;;;;;;;-1.23;100.00;101244.05;105821;1253;60539;-79
2023/11/22 05:44:07;;;;;;;73.10;42.10;;;;;;;-1.21;100.00;101249.89;107224;1256;73905;-78
2023/11/22 05:46:35;;;;;;;74.50;42.60;;;;;;;-1.19;100.00;101249.36;109501;1252;63053;-77
2023/11/22 05:49:02;;;;;;;66.80;38.90;;;;;;;-1.15;100.00;101253.48;108277;1255;72748;-77
2023/11/22 05:51:30;;;;;;;62.80;38.70;;;;;;;-1.10;100.00;101257.25;106713;1253;60573;-78
2023/11/22 05:53:58;;;;;;;64.70;38.20;;;;;;;-1.11;100.00;101252.62;106310;1257;60426;-80
2023/11/22 05:56:26;;;;;;;65.00;36.20;;;;;;;-1.10;100.00;101252.11;105864;1253;73279;-79
2023/11/22 05:58:53;;;;;;;62.20;38.70;;;;;;;-1.10;100.00;101251.41;105574;1253;62718;-79
2023/11/22 06:01:21;;;;;;;59.30;37.50;;;;;;;-1.10;100.00;101255.36;105785;1257;73136;-80
2023/11/22 06:03:51;;;;;;;60.70;36.40;;;;;;;-1.09;100.00;101253.13;105828;1258;60457;-78
2023/11/22 06:06:21;;;;;;;55.60;34.10;;;;;;;-1.09;100.00;101252.95;106241;1251;61189;-80
2023/11/22 06:08:49;;;;;;;58.10;36.00;;;;;;;-1.04;100.00;101253.29;105956;1253;73909;-78
2023/11/22 06:11:19;;;;;;;49.50;30.30;;;;;;;-1.00;100.00;101259.11;105828;1252;62950;-79
2023/11/22 06:13:47;;;;;;;54.90;32.40;;;;;;;-0.96;100.00;101261.69;105916;1251;72701;-80
2023/11/22 06:16:15;;;;;;;50.10;33.60;;;;;;;-0.91;100.00;101262.70;105893;1257;60451;-80
2023/11/22 06:18:44;;;;;;;48.60;32.00;;;;;;;-0.88;100.00;101259.77;105797;1252;60544;-77
2023/11/22 06:21:11;;;;;;;53.00;32.70;;;;;;;-0.86;100.00;101263.55;105755;1255;73654;-79
2023/11/22 06:23:39;;;;;;;53.60;31.70;;;;;;;-0.87;100.00;101264.23;105860;1251;62901;-79
2023/11/22 06:26:07;;;;;;;50.50;31.20;;;;;;;-0.88;100.00;101260.64;105842;1253;70467;-78
2023/11/22 06:28:35;;;;;;;49.00;30.10;;;;;;;-0.86;100.00;101264.07;105781;1251;60475;-78
2023/11/22 06:31:03;;;;;;;43.50;26.60;;;;;;;-0.81;100.00;101269.89;105954;1257;60422;-80
2023/11/22 06:33:31;;;;;;;49.90;26.00;;;;;;;-0.77;100.00;101265.41;105760;1255;72539;-79
2023/11/22 06:35:58;;;;;;;39.00;23.60;;;;;;;-0.75;100.00;101259.58;105956;1253;63577;-79
2023/11/22 06:38:26;;;;;;;33.80;23.10;;;;;;;-0.76;100.00;101253.73;105758;1253;70569;-80
2023/11/22 06:40:53;;;;;;;36.80;22.20;;;;;;;-0.78;100.00;101250.48;105866;1254;60463;-80
2023/11/22 06:43:22;;;;;;;33.80;22.60;;;;;;;-0.78;100.00;101251.50;105930;1256;60352;-80
2023/11/22 06:45:51;;;;;;;40.80;22.70;;;;;;;-0.79;100.00;101255.80;105850;1251;72616;-81
2023/11/22 06:48:19;;;;;;;39.70;23.00;;;;;;;-0.77;100.00;101260.26;105719;1252;62236;-80
2023/11/22 06:50:47;;;;;;;35.10;22.50;;;;;;;-0.75;100.00;101264.04;105766;1253;71633;-80
2023/11/22 06:53:15;;;;;;;33.60;22.30;;;;;;;-0.76;100.00;101261.63;105776;1252;60545;-80
2023/11/22 06:55:45;;;;;;;35.80;21.80;;;;;;;-0.75;100.00;101261.63;105752;1251;60513;-80
2023/11/22 06:58:13;;;;;;;35.10;20.50;;;;;;;-0.76;100.00;101255.96;105845;1255;72604;-80
2023/11/22 07:00:41;;;;;;;32.10;22.10;;;;;;;-0.74;100.00;101250.64;105742;1251;64843;-78
2023/11/22 07:03:08;;;;;;;31.00;20.10;;;;;;;-0.69;100.00;101254.23;105735;1253;71470;-79
2023/11/22 07:05:36;;;;;;;36.90;22.80;;;;;;;-0.64;100.00;101258.16;105735;1253;60480;-81
2023/11/22 07:08:04;;;;;;;33.80;21.20;;;;;;;-0.60;100.00;101260.90;105817;1255;60403;-79
2023/11/22 07:10:34;;;;;;;30.80;18.70;;;;;;;-0.56;100.00;101265.52;105794;1253;72361;-78
2023/11/22 07:13:01;;;;;;;31.80;19.00;;;;;;;-0.54;100.00;101267.91;105922;1256;65259;-79
2023/11/22 07:15:29;;;;;;;29.40;18.30;;;;;;;-0.55;100.00;101267.92;105809;1251;72365;-78
2023/11/22 07:17:57;;;;;;;29.50;19.00;;;;;;;-0.53;100.00;101263.10;105747;1255;60458;-79
2023/11/22 07:20:27;;;;;;;29.10;17.20;;;;;;;-0.49;100.00;101265.83;105863;1256;60764;-80
2023/11/22 07:22:57;;;;;;;31.60;19.90;;;;;;;-0.44;100.00;101270.63;105781;1253;72712;-79
2023/11/22 07:25:25;;;;;;;27.40;17.40;;;;;;;-0.41;100.00;101267.17;106024;1256;62721;-78
2023/11/22 07:27:53;;;;;;;29.40;18.70;;;;;;;-0.43;100.00;101259.28;105769;1253;71352;-80
2023/11/22 07:30:22;;;;;;;30.80;19.70;;;;;;;-0.46;100.00;101258.43;105950;1253;60368;-80
2023/11/22 07:32:51;;;;;;;24.70;17.10;;;;;;;-0.48;100.00;101265.14;105915;1253;60442;-80
2023/11/22 07:35:19;;;;;;;24.60;16.90;;;;;;;-0.52;100.00;101269.80;105919;1251;73368;-78
2023/11/22 07:37:47;;;;;;;26.20;15.70;;;;;;;-0.55;100.00;101267.75;105673;1251;62080;-80
2023/11/22 07:40:15;;;;;;;27.50;16.70;;;;;;;-0.57;100.00;101263.80;105827;1252;72732;-80
2023/11/22 07:42:44;;;;;;;27.40;17.80;;;;;;;-0.60;100.00;101263.82;105680;1253;60473;-79
2023/11/22 07:46:46;;;;;;;25.70;16.40;;;;;;;-0.60;100.00;101263.81;102602;1294;600155;-78
2023/11/22 07:49:16;;;;;;;34.30;19.00;;;;;;;-0.60;100.00;101262.27;104869;1270;59743;-81
2023/11/22 07:51:45;;;;;;;28.30;17.60;;;;;;;-0.62;100.00;101258.66;104878;1272;59770;-80
2023/11/22 07:54:15;;;;;;;32.20;19.10;;;;;;;-0.63;100.00;101260.39;104851;1268;74120;-78
2023/11/22 07:56:47;;;;;;;33.80;20.40;;;;;;;-0.64;100.00;101258.34;104906;1267;66511;-80
2023/11/22 07:59:15;;;;;;;29.70;16.70;;;;;;;-0.61;100.00;101261.58;104715;1280;202722;-78
2023/11/22 08:01:47;;;;;;;26.40;16.70;;;;;;;-0.55;100.00;101266.89;105107;1264;59962;-80
2023/11/22 08:04:19;;;;;;;25.70;16.90;;;;;;;-0.53;100.00;101268.25;105073;1269;59698;-78
2023/11/22 08:06:47;;;;;;;29.80;17.70;;;;;;;-0.50;100.00;101262.91;105039;1269;71785;-80
2023/11/22 08:09:16;;;;;;;27.20;17.90;;;;;;;-0.46;100.00;101262.38;105039;1268;64208;-79
2023/11/22 08:11:44;;;;;;;27.90;15.50;;;;;;;-0.45;100.00;101261.86;105139;1268;71681;-77
2023/11/22 08:14:13;;;;;;;26.40;15.80;;;;;;;-0.47;100.00;101265.48;105287;1277;61055;-79
2023/11/22 08:16:42;;;;;;;24.40;15.30;;;;;;;-0.46;100.00;101270.45;104970;1271;59695;-80
2023/11/22 08:19:11;;;;;;;21.90;14.20;;;;;;;-0.47;100.00;101275.27;105076;1269;73496;-79
2023/11/22 08:21:39;;;;;;;20.60;14.70;;;;;;;-0.44;100.00;101273.35;104956;1264;62556;-78
2023/11/22 08:24:07;;;;;;;23.50;14.30;;;;;;;-0.42;100.00;101270.79;105160;1268;72812;-79
2023/11/22 08:26:35;;;;;;;25.00;16.00;;;;;;;-0.40;100.00;101265.29;105053;1265;60876;-79
2023/11/22 08:29:04;;;;;;;21.50;14.90;;;;;;;-0.40;100.00;101266.14;104708;1267;59607;-82
2023/11/22 08:31:32;;;;;;;21.40;14.00;;;;;;;-0.37;100.00;101266.64;104881;1270;73133;-80
2023/11/22 08:34:00;;;;;;;27.30;15.80;;;;;;;-0.35;100.00;101270.77;105158;1269;65567;-79
2023/11/22 08:36:28;;;;;;;24.10;15.80;;;;;;;-0.35;100.00;101272.83;106056;1263;71367;-78
2023/11/22 08:38:58;;;;;;;22.80;15.10;;;;;;;-0.35;100.00;101271.96;108063;1263;61706;-77
2023/11/22 08:41:29;;;;;;;30.70;18.00;;;;;;;-0.28;100.00;101268.48;106313;1263;59651;-79
2023/11/22 08:43:56;;;;;;;27.50;17.10;;;;;;;-0.17;100.00;101266.38;105025;1269;73092;-79
2023/11/22 08:59:28;;;;;;;24.60;16.00;;;;;;;0.41;100.00;101258.95;102738;1294;601515;-80
2023/11/22 09:01:56;;;;;;;21.20;16.00;;;;;;;0.45;100.00;101251.86;104900;1269;61327;-78
2023/11/22 09:04:31;;;;;;;22.40;14.60;;;;;;;0.50;100.00;101250.10;104998;1274;59475;-78
2023/11/22 09:06:59;;;;;;;22.10;14.50;;;;;;;0.47;100.00;101243.59;104992;1269;71467;-81
2023/11/22 09:09:30;;;;;;;26.80;15.10;;;;;;;0.47;100.00;101244.80;105581;1257;62423;-81
2023/11/22 09:12:01;;;;;;;27.90;14.40;;;;;;;0.43;100.00;101249.64;105326;1260;249123;-81
2023/11/22 09:14:29;;;;;;;25.10;15.60;;;;;;;0.41;100.00;101249.83;105669;1260;60776;-79
2023/11/22 09:16:56;;;;;;;20.40;12.00;;;;;;;0.42;100.00;101242.94;105386;1259;59699;-81
2023/11/22 09:19:24;;;;;;;16.90;12.00;;;;;;;0.41;100.00;101235.71;105407;1260;71539;-82
2023/11/22 09:21:52;;;;;;;23.70;11.00;;;;;;;0.37;100.00;101233.17;105458;1260;64798;-81
2023/11/22 09:24:20;;;;;;;18.20;11.30;;;;;;;0.33;100.00;101234.58;105395;1260;72487;-81
2023/11/22 09:26:48;;;;;;;26.10;13.70;;;;;;;0.34;100.00;101237.48;105387;1259;61462;-80
2023/11/22 09:29:15;;;;;;;31.60;16.20;;;;;;;0.32;100.00;101232.17;105464;1260;59581;-79
2023/11/22 09:31:46;;;;;;;32.10;17.20;;;;;;;0.28;100.00;101224.13;105867;1256;73963;-79
2023/11/22 09:34:15;;;;;;;24.20;14.40;;;;;;;0.26;100.00;101225.00;105958;1258;63258;-80
2023/11/22 09:36:42;;;;;;;24.40;14.80;;;;;;;0.26;100.00;101219.50;105925;1257;72925;-79
2023/11/22 09:39:10;;;;;;;22.20;13.00;;;;;;;0.32;100.00;101216.36;105718;1256;61061;-80
2023/11/22 09:41:39;;;;;;;17.60;11.20;;;;;;;0.38;100.00;101221.99;105740;1251;62000;-80
2023/11/22 09:44:06;;;;;;;20.80;12.00;;;;;;;0.37;100.00;101227.31;105738;1251;71842;-81
2023/11/22 09:46:37;;;;;;;14.60;11.00;;;;;;;0.36;100.00;101220.63;105562;1258;64831;-81
2023/11/22 09:49:05;;;;;;;19.90;11.70;;;;;;;0.41;100.00;101216.46;105943;1257;71517;-81
2023/11/22 09:51:33;;;;;;;27.40;14.10;;;;;;;0.49;100.00;101223.79;105947;1257;60608;-79
2023/11/22 09:54:04;;;;;;;20.70;13.20;;;;;;;0.52;100.00;101221.00;106111;1260;59740;-81
2023/11/22 09:56:32;;;;;;;21.60;11.10;;;;;;;0.50;100.00;101222.06;106010;1251;73162;-81
2023/11/22 09:59:00;;;;;;;16.60;10.60;;;;;;;0.49;100.00;101221.39;105813;1251;63910;-79
2023/11/22 10:01:48;;;;;;;14.00;10.60;;;;;;;0.52;100.00;101221.86;105870;1251;71234;-80
2023/11/22 10:04:16;;;;;;;15.20;10.00;;;;;;;0.56;100.00;101211.34;106077;1254;59650;-80
2023/11/22 10:06:46;;;;;;;14.10;9.80;;;;;;;0.60;100.00;101212.66;105884;1251;60125;-78
2023/11/22 10:09:15;;;;;;;15.70;10.80;;;;;;;0.63;100.00;101211.27;105896;1257;73048;-81
2023/11/22 10:11:43;;;;;;;13.80;10.20;;;;;;;0.71;100.00;101218.26;105881;1255;62974;-80
2023/11/22 10:14:27;;;;;;;17.60;11.20;;;;;;;0.79;100.00;101219.73;105868;1256;72477;-79
2023/11/22 10:17:01;;;;;;;20.40;11.00;;;;;;;0.84;100.00;101222.26;105756;1251;62188;-81
2023/11/22 10:19:29;;;;;;;21.70;14.50;;;;;;;0.81;100.00;101221.77;105943;1255;59679;-79
2023/11/22 10:22:07;;;;;;;22.30;14.80;;;;;;;0.72;100.00;101220.30;106075;1251;71809;-77
2023/11/22 10:24:35;;;;;;;23.80;15.20;;;;;;;0.66;100.00;101219.15;105999;1251;64669;-79
2023/11/22 10:27:03;;;;;;;25.70;14.90;;;;;;;0.66;100.00;101216.42;105972;1251;72483;-79
2023/11/22 10:29:30;;;;;;;22.00;13.00;;;;;;;0.65;100.00;101221.08;105855;1252;59673;-78
2023/11/22 10:31:58;;;;;;;24.00;12.80;;;;;;;0.62;100.00;101218.51;105991;1251;60206;-82
2023/11/22 10:34:36;;;;;;;22.70;12.60;;;;;;;0.59;100.00;101217.16;106199;1257;74851;-80
2023/11/22 10:37:04;;;;;;;29.20;15.00;;;;;;;0.54;100.00;101213.41;105870;1257;63709;-80
2023/11/22 10:39:32;;;;;;;25.00;14.50;;;;;;;0.52;100.00;101212.58;105880;1256;72508;-81
2023/11/22 10:42:01;;;;;;;22.40;12.00;;;;;;;0.56;100.00;101216.16;106054;1256;64186;-82
2023/11/22 10:44:28;;;;;;;16.10;11.00;;;;;;;0.57;100.00;101217.35;105908;1251;60023;-80
2023/11/22 10:46:56;;;;;;;19.10;10.70;;;;;;;0.50;100.00;101216.21;105783;1257;73027;-79
2023/11/22 10:49:24;;;;;;;16.60;9.80;;;;;;;0.47;100.00;101215.38;105921;1258;65527;-77
2023/11/22 10:51:52;;;;;;;16.70;10.40;;;;;;;0.46;100.00;101218.31;105887;1252;70474;-80
2023/11/22 10:54:21;;;;;;;22.00;14.00;;;;;;;0.46;100.00;101217.43;106039;1251;60839;-79
2023/11/22 10:56:55;;;;;;;16.70;10.30;;;;;;;0.49;100.00;101225.34;105805;1255;59730;-80
2023/11/22 10:59:27;;;;;;;17.20;11.00;;;;;;;0.47;100.00;101228.11;105988;1251;72601;-81
2023/11/22 11:01:55;;;;;;;16.70;10.90;;;;;;;0.39;100.00;101226.96;105922;1258;64062;-79
2023/11/22 11:04:27;;;;;;;15.70;10.60;;;;;;;0.32;100.00;101228.56;105822;1254;70621;-81
2023/11/22 11:06:58;;;;;;;19.40;10.20;;;;;;;0.23;100.00;101227.26;106015;1251;59799;-82
2023/11/22 11:09:32;;;;;;;14.60;11.50;;;;;;;0.14;100.00;101225.09;106023;1251;59643;-80
2023/11/22 11:12:03;;;;;;;20.00;11.50;;;;;;;0.08;100.00;101226.00;105782;1257;74906;-80
2023/11/22 11:14:35;;;;;;;16.70;11.80;;;;;;;0.05;100.00;101233.75;105837;1251;62306;-81
2023/11/22 11:17:04;;;;;;;24.90;12.50;;;;;;;0.00;100.00;101233.96;109674;1251;72947;-79